createdAt,value
2022-11-06T00:02:21.780Z,10
2022-11-06T00:07:29.087Z,10.1
2022-11-06T00:12:34.938Z,10
2022-11-06T00:17:41.219Z,9.9
2022-11-06T00:22:48.887Z,9.8
2022-11-06T00:28:01.073Z,9.7
2022-11-06T00:33:22.852Z,9.8
2022-11-06T00:38:28.080Z,9.7
2022-11-06T00:43:49.813Z,9.6
2022-11-06T00:49:11.488Z,9.6
2022-11-06T00:54:34.646Z,9.9
2022-11-06T00:59:57.068Z,9.6
2022-11-06T01:05:20.595Z,9.2
2022-11-06T01:10:42.411Z,8.9
2022-11-06T01:16:31.220Z,8.9
2022-11-06T01:21:53.569Z,8.8
2022-11-06T01:27:58.382Z,8.9
2022-11-06T01:33:20.777Z,9
2022-11-06T01:38:27.268Z,8.6
2022-11-06T01:43:48.345Z,8.4
2022-11-06T01:49:30.409Z,8.4
2022-11-06T01:54:52.571Z,8.4
2022-11-06T02:00:15.419Z,8.2
2022-11-06T02:05:38.933Z,8.2
2022-11-06T02:10:44.855Z,8.3
2022-11-06T02:16:22.543Z,8.8
2022-11-06T02:21:58.344Z,9.6
2022-11-06T02:27:35.254Z,9.9
2022-11-06T02:32:42.037Z,10
2022-11-06T02:38:18.963Z,10.7
2022-11-06T02:43:41.057Z,11.1
2022-11-06T02:49:17.991Z,11.5
2022-11-06T02:54:55.739Z,11.5
2022-11-06T03:00:18.181Z,11.8
2022-11-06T03:05:41.271Z,12.1
2022-11-06T03:11:03.839Z,12.1
2022-11-06T03:16:40.702Z,12.1
2022-11-06T03:22:17.600Z,12
2022-11-06T03:27:55.392Z,11.9
2022-11-06T03:33:08.206Z,11.9
2022-11-06T03:38:29.690Z,11.6
2022-11-06T03:44:06.382Z,11.6
2022-11-06T03:49:42.942Z,11.3
2022-11-06T03:55:19.426Z,11.4
2022-11-06T04:00:57.820Z,11.6
2022-11-06T04:06:20.645Z,11.7
2022-11-06T04:11:58.487Z,11.6
2022-11-06T04:17:19.977Z,11.7
2022-11-06T04:22:26.677Z,11.6
2022-11-06T04:28:04.278Z,11.6
2022-11-06T04:33:44.446Z,11.7
2022-11-06T04:38:49.925Z,11.8
2022-11-06T04:44:11.757Z,11.7
2022-11-06T04:49:18.218Z,11.8
2022-11-06T04:54:55.997Z,11.7
2022-11-06T05:00:42.220Z,11.8
2022-11-06T05:06:04.699Z,11.9
2022-11-06T05:11:45.687Z,12.1
2022-11-06T05:17:23.313Z,12.1
2022-11-06T05:23:01.221Z,12.2
2022-11-06T05:28:44.728Z,12.3
2022-11-06T05:34:21.913Z,12.3
2022-11-06T05:39:58.801Z,12.1
2022-11-06T05:45:35.860Z,12.1
2022-11-06T05:51:37.794Z,12.2
2022-11-06T05:57:16.759Z,12.3
2022-11-06T06:02:39.294Z,12.4
2022-11-06T06:08:16.361Z,12.5
2022-11-06T06:13:54.635Z,12.6
2022-11-06T06:19:38.686Z,12.8
2022-11-06T06:25:22.594Z,12.9
2022-11-06T06:30:45.632Z,12.9
2022-11-06T06:36:23.006Z,13.1
2022-11-06T06:41:50.583Z,13.1
2022-11-06T06:47:35.327Z,13.1
2022-11-06T06:53:13.089Z,13.3
2022-11-06T06:58:51.375Z,13.3
2022-11-06T07:04:36.443Z,13.4
2022-11-06T07:09:59.400Z,13.5
2022-11-06T07:15:37.817Z,13.5
2022-11-06T07:20:59.985Z,13.5
2022-11-06T07:26:30.969Z,13.6
2022-11-06T07:31:53.593Z,13.6
2022-11-06T07:37:15.244Z,13.6
2022-11-06T07:42:42.330Z,13.7
2022-11-06T07:47:52.028Z,13.8
2022-11-06T07:53:18.429Z,13.9
2022-11-06T07:58:40.482Z,14
2022-11-06T08:03:52.162Z,14.3
2022-11-06T08:09:15.762Z,14.3
2022-11-06T08:14:41.356Z,14.4
2022-11-06T08:20:03.945Z,14.4
2022-11-06T08:25:33.589Z,14.4
2022-11-06T08:30:56.732Z,14.3
2022-11-06T08:36:20.718Z,14.3
2022-11-06T08:41:29.252Z,14.1
2022-11-06T08:46:55.089Z,14.1
2022-11-06T08:52:18.982Z,13.9
2022-11-06T08:57:59.888Z,13.9
2022-11-06T09:03:46.579Z,13.5
2022-11-06T09:09:31.252Z,13.6
2022-11-06T09:15:16.247Z,13.6
2022-11-06T09:20:44.573Z,13.7
2022-11-06T09:26:35.417Z,13.8
2022-11-06T09:32:01.092Z,13.8
2022-11-06T09:37:46.355Z,13.8
2022-11-06T09:43:58.613Z,13.6
2022-11-06T09:49:43.245Z,13.8
2022-11-06T09:55:31.884Z,13.6
2022-11-06T10:01:13.163Z,13.7
2022-11-06T10:06:57.218Z,13.7
2022-11-06T10:12:35.129Z,13.6
2022-11-06T10:18:13.041Z,13.5
2022-11-06T10:23:52.830Z,13.6
2022-11-06T10:29:30.500Z,13.6
2022-11-06T10:35:08.357Z,13.6
2022-11-06T10:40:49.948Z,13.7
2022-11-06T10:46:26.571Z,13.7
2022-11-06T10:52:09.663Z,13.9
2022-11-06T10:57:52.947Z,14.1
2022-11-06T11:03:32.396Z,13.7
2022-11-06T11:09:00.329Z,13.6
2022-11-06T11:14:37.514Z,13.6
2022-11-06T11:20:00.583Z,13.6
2022-11-06T11:25:26.222Z,13.5
2022-11-06T11:30:51.379Z,13.5
2022-11-06T11:36:19.700Z,13.6
2022-11-06T11:41:43.182Z,13.6
2022-11-06T11:47:25.727Z,13.5
2022-11-06T11:53:07.228Z,13.6
2022-11-06T11:59:20.448Z,13.6
2022-11-06T12:05:02.739Z,13.7
2022-11-06T12:10:25.175Z,13.8
2022-11-06T12:16:03.220Z,13.9
2022-11-06T12:21:33.161Z,13.9
2022-11-06T12:27:10.573Z,13.8
2022-11-06T12:32:48.201Z,13.8
2022-11-06T12:38:54.988Z,13.8
2022-11-06T12:44:38.316Z,13.8
2022-11-06T12:50:17.429Z,13.8
2022-11-06T12:55:25.094Z,13.8
2022-11-06T13:01:04.695Z,13.8
2022-11-06T13:06:30.022Z,13.9
2022-11-06T13:12:08.324Z,13.8
2022-11-06T13:17:46.643Z,13.9
2022-11-06T13:23:25.339Z,13.8
2022-11-06T13:29:05.017Z,13.8
2022-11-06T13:34:42.614Z,13.8
2022-11-06T13:40:19.963Z,13.8
2022-11-06T13:45:42.286Z,13.8
2022-11-06T13:50:54.487Z,13.7
2022-11-06T13:56:02.441Z,13.8
2022-11-06T14:01:42.643Z,13.7
2022-11-06T14:07:27.581Z,13.8
2022-11-06T14:13:05.845Z,13.7
2022-11-06T14:18:43.113Z,13.7
2022-11-06T14:24:21.990Z,13.7
2022-11-06T14:30:05.524Z,13.6
2022-11-06T14:36:03.011Z,13.6
2022-11-06T14:41:45.279Z,13.5
2022-11-06T14:47:29.707Z,13.6
2022-11-06T14:53:08.353Z,13.5
2022-11-06T14:58:48.649Z,13.4
2022-11-06T15:04:28.027Z,13.4
2022-11-06T15:10:38.830Z,13.4
2022-11-06T15:16:26.834Z,13.4
2022-11-06T15:26:39.550Z,13.4
2022-11-06T15:32:17.921Z,13.4
2022-11-06T15:37:39.629Z,13.4
2022-11-06T15:43:09.186Z,13.4
2022-11-06T15:48:46.877Z,13.5
2022-11-06T15:54:31.176Z,13.6
2022-11-06T16:00:16.141Z,13.4
2022-11-06T16:06:00.705Z,13.4
2022-11-06T16:11:45.249Z,13.2
2022-11-06T16:17:22.901Z,12.9
2022-11-06T16:23:05.002Z,12.6
2022-11-06T16:28:17.618Z,12.6
2022-11-06T16:33:15.964Z,12.4
2022-11-06T16:39:47.597Z,12.3
2022-11-06T16:45:10.039Z,12.3
2022-11-06T16:50:32.371Z,12.3
2022-11-06T16:55:55.476Z,12.4
2022-11-06T17:01:37.477Z,12.4
2022-11-06T17:07:00.960Z,12.3
2022-11-06T17:12:23.293Z,12.3
2022-11-06T17:17:45.552Z,12.1
2022-11-06T17:23:23.791Z,12.1
2022-11-06T17:29:09.898Z,12.1
2022-11-06T17:34:32.292Z,12.1
2022-11-06T17:39:54.744Z,12.2
2022-11-06T17:45:17.307Z,12.2
2022-11-06T17:50:45.249Z,12.1
2022-11-06T17:56:08.099Z,12.1
2022-11-06T18:01:36.246Z,12
2022-11-06T18:07:50.167Z,12
2022-11-06T18:13:27.917Z,12.1
2022-11-06T18:18:49.744Z,12.1
2022-11-06T18:28:36.987Z,12
2022-11-06T18:33:58.151Z,12.1
2022-11-06T18:39:42.531Z,12
2022-11-06T18:45:08.124Z,12
2022-11-06T18:50:49.005Z,11.8
2022-11-06T18:57:16.528Z,11.8
2022-11-06T19:03:03.269Z,11.8
2022-11-06T19:08:46.027Z,11.9
2022-11-06T19:14:08.556Z,11.9
2022-11-06T19:19:58.806Z,11.8
2022-11-06T19:25:20.027Z,11.8
2022-11-06T19:31:27.721Z,11.8
2022-11-06T19:37:06.897Z,11.6
2022-11-06T19:42:28.175Z,11.6
2022-11-06T19:48:12.479Z,11.6
2022-11-06T19:55:25.196Z,11.4
2022-11-06T20:01:43.285Z,11.3
2022-11-06T20:07:13.715Z,11.1
2022-11-06T20:12:36.374Z,10.9
2022-11-06T20:18:15.695Z,10.8
2022-11-06T20:23:44.965Z,10.9
2022-11-06T20:29:12.627Z,11.2
2022-11-06T20:34:53.571Z,11.2
2022-11-06T20:40:34.521Z,11.1
2022-11-06T20:51:54.117Z,10.9
2022-11-06T20:57:56.202Z,10.6
2022-11-06T21:03:19.553Z,10.6
2022-11-06T21:08:26.381Z,10.6
2022-11-06T21:13:49.228Z,10.8
2022-11-06T21:19:10.958Z,10.9
2022-11-06T21:24:54.017Z,11
2022-11-06T21:30:18.888Z,11.1
2022-11-06T21:35:48.538Z,11.1
2022-11-06T21:41:22.077Z,11.3
2022-11-06T21:46:29.158Z,11.6
2022-11-06T21:52:02.236Z,11.6
2022-11-06T21:57:40.150Z,11.4
2022-11-06T22:02:51.383Z,11.4
2022-11-06T22:08:30.722Z,11.4
2022-11-06T22:14:13.236Z,11.1
2022-11-06T22:19:35.972Z,10.8
2022-11-06T22:37:38.931Z,10
2022-11-06T22:43:22.387Z,9.6
2022-11-06T22:49:00.244Z,9.3
2022-11-06T22:54:22.658Z,9.3
2022-11-06T23:00:00.233Z,9.3
2022-11-06T23:05:41.847Z,9.1
2022-11-06T23:11:21.736Z,8.8
2022-11-06T23:17:01.263Z,8.6
2022-11-06T23:22:06.987Z,8.4
2022-11-06T23:27:30.440Z,8.5
2022-11-06T23:32:54.585Z,8.4
2022-11-06T23:38:09.134Z,8.3
2022-11-06T23:43:16.579Z,8.5
2022-11-06T23:48:41.658Z,8.4
2022-11-06T23:54:18.487Z,8.4
2022-11-06T23:59:25.316Z,8.3
